This is the latest recevied weather packets stored in our database for station/object KF0GNS-15. If no packets are shown the sender has not sent any weather packets the latest 1 day(s).
| Time | Temp. | Humidity | Pressure | Rain* | Wind** | Luminosity | Snow |
|---|---|---|---|---|---|---|---|
| 1778093909 | 15.56° C | 33% | 1021.2 hPa | 0 mm | - | - | - |
| 1778092960 | 16.11° C | 34% | 1021.4 hPa | 0 mm | - | - | - |
| 1778087266 | 14.44° C | 35% | 1022 hPa | 0 mm | - | - | - |
| 1778085368 | 15° C | 37% | 1021.9 hPa | 0 mm | - | - | - |
| 1778082521 | 13.89° C | 43% | 1021.5 hPa | 0 mm | - | - | - |
| 1778076827 | 10.56° C | 61% | 1021.4 hPa | 0 mm | - | - | - |
| 1778074929 | 9.44° C | 74% | 1020.9 hPa | 0 mm | - | - | - |
| 1778073980 | 8.89° C | 80% | 1020.7 hPa | 0 mm | - | - | - |
| 1778072082 | 7.78° C | 91% | 1020.3 hPa | 0 mm | - | - | - |
| 1778070184 | 6.67° C | 94% | 1019.7 hPa | 0 mm | - | - | - |
| 1778066390 | 6.67° C | 92% | 1018.5 hPa | 0 mm | - | - | - |
| 1778063541 | 7.22° C | 90% | 1019.1 hPa | 0 mm | - | - | - |
| 1778062592 | 7.22° C | 90% | 1019 hPa | 0 mm | - | - | - |
| 1778059748 | 7.22° C | 91% | 1018.2 hPa | 0 mm | - | - | - |
| 1778058796 | 7.22° C | 91% | 1018.1 hPa | 0 mm | - | - | - |
| 1778057849 | 7.22° C | 90% | 1017.9 hPa | 0 mm | - | - | - |
| 1778056897 | 7.22° C | 90% | 1018 hPa | 0 mm | - | - | - |
| 1778055949 | 7.22° C | 91% | 1018 hPa | 0 mm | - | - | - |
| 1778055001 | 7.22° C | 91% | 1017.5 hPa | 0 mm | - | - | - |
| 1778052154 | 7.22° C | 89% | 1017 hPa | 0 mm | - | - | - |
| 1778051204 | 7.22° C | 88% | 1016.6 hPa | 0 mm | - | - | - |
| 1778048357 | 7.22° C | 87% | 1017.2 hPa | 0.51 mm | - | - | - |
| 1778047410 | 7.22° C | 86% | 1017.5 hPa | 0.51 mm | - | - | - |
| 1778045510 | 7.78° C | 84% | 1017.7 hPa | 0.76 mm | - | - | - |
| 1778042663 | 9.44° C | 69% | 1017.7 hPa | 0 mm | - | - | - |
* Rain latest hour (hover to see other rain measurements)
** Current wind speed in m/s (hover to see current wind gust speed)